Terminal Aerodrome Forecast
Issued by NWS

Home | Current Version | Previous Version | Text Only | Print | Product List | Glossary On
Versions: 1 2 3 4 5 6 7 8 9 10 11 12 13
000
FTAK31 PAJN 281100
TAFAPG
TAF
PAPG 281133Z 2812/2912 VRB03KT P6SM BKN060
     FM281700 05008KT P6SM FEW020 BKN070
     FM290200 07006KT P6SM FEW040 BKN100
     FM290600 VRB03KT P6SM SCT100
      AMD LTD TO CLD VIS AND WIND 2812/2815=

USA.gov is the U.S. government's official web portal to all federal, state and local government web resources and services.